Time;durP1;ratioP1;P1;durP2;ratioP2;P2;SDS_P1;SDS_P2;PMS_P1;PMS_P2;Temp;Humidity;BMP_temperature;BMP_pressure;BME280_temperature;BME280_humidity;BME280_pressure;Samples;Min_cycle;Max_cycle;Signal;HPM_P1;HPM_P2
2022/10/27 00:02:23;;;;;;;36.95;23.27;;;12.80;99.90;;;;;;5077936;28;20067;-72
2022/10/27 00:04:48;;;;;;;34.47;21.95;;;12.80;99.90;;;;;;5096198;28;20447;-72
2022/10/27 00:07:14;;;;;;;36.58;22.73;;;12.80;99.90;;;;;;5095670;28;20055;-72
2022/10/27 00:09:39;;;;;;;35.38;23.40;;;12.80;99.90;;;;;;5096202;28;20024;-71
2022/10/27 00:12:06;;;;;;;36.58;23.45;;;12.80;99.90;;;;;;5095553;28;20081;-72
2022/10/27 00:14:32;;;;;;;36.80;24.27;;;12.70;99.90;;;;;;5077916;28;20517;-72
2022/10/27 00:16:58;;;;;;;36.58;24.17;;;12.70;99.90;;;;;;5095004;28;20119;-72
2022/10/27 00:19:24;;;;;;;31.83;21.98;;;12.70;99.90;;;;;;5096035;28;20035;-73
2022/10/27 00:21:50;;;;;;;34.55;22.92;;;12.70;99.90;;;;;;5095690;28;20472;-73
2022/10/27 00:24:17;;;;;;;32.05;22.25;;;12.70;99.90;;;;;;5095303;28;20024;-73
2022/10/27 00:26:43;;;;;;;37.15;23.90;;;12.60;99.90;;;;;;5095580;28;20043;-71
2022/10/27 00:29:09;;;;;;;34.95;23.42;;;12.60;99.90;;;;;;5095330;28;20016;-72
2022/10/27 00:31:34;;;;;;;34.65;22.95;;;12.60;99.90;;;;;;5095831;28;20030;-73
2022/10/27 00:34:00;;;;;;;35.22;22.45;;;12.60;99.90;;;;;;5095219;28;20020;-73
2022/10/27 00:36:26;;;;;;;33.65;21.70;;;12.60;99.90;;;;;;5077463;28;20067;-73
2022/10/27 00:38:56;;;;;;;32.90;22.63;;;12.60;99.90;;;;;;5095601;28;20452;-73
2022/10/27 00:41:28;;;;;;;31.73;21.55;;;12.60;99.90;;;;;;5095755;28;20074;-72
2022/10/27 00:43:54;;;;;;;38.55;22.20;;;12.50;99.90;;;;;;5095624;28;20110;-73
2022/10/27 00:46:38;;;;;;;33.70;22.92;;;12.50;99.90;;;;;;5076678;28;20036;-71
2022/10/27 00:49:15;;;;;;;35.30;21.70;;;12.60;99.90;;;;;;5095004;28;20028;-73
2022/10/27 00:51:50;;;;;;;36.30;23.20;;;12.50;99.90;;;;;;5095119;28;20028;-73
2022/10/27 00:54:17;;;;;;;34.47;23.40;;;12.50;99.90;;;;;;5097508;28;20380;-73
2022/10/27 00:56:46;;;;;;;35.92;24.10;;;12.50;99.90;;;;;;5094785;28;20055;-73
2022/10/27 00:59:13;;;;;;;39.03;23.33;;;12.50;99.90;;;;;;5094829;28;20032;-73
2022/10/27 01:01:39;;;;;;;36.75;23.40;;;12.40;99.90;;;;;;5095151;28;20034;-73
2022/10/27 01:04:05;;;;;;;33.00;22.85;;;12.40;99.90;;;;;;5094205;28;20050;-72
2022/10/27 01:06:50;;;;;;;35.58;22.23;;;12.40;99.90;;;;;;5094799;28;20468;-72
2022/10/27 01:09:15;;;;;;;36.47;22.17;;;12.40;99.90;;;;;;5094829;28;20089;-72
2022/10/27 01:11:41;;;;;;;32.53;22.10;;;12.40;99.90;;;;;;5094654;28;20028;-72
2022/10/27 01:14:07;;;;;;;34.20;22.63;;;12.40;99.90;;;;;;5094206;28;20028;-73
2022/10/27 01:16:48;;;;;;;36.65;23.50;;;12.40;99.90;;;;;;5094841;28;20032;-72
2022/10/27 01:19:35;;;;;;;35.22;23.20;;;12.30;99.90;;;;;;5094521;28;20360;-72
2022/10/27 01:22:08;;;;;;;35.90;21.98;;;12.30;99.90;;;;;;5094463;28;20464;-73
2022/10/27 01:24:41;;;;;;;35.50;21.85;;;12.30;99.90;;;;;;5094848;28;20467;-73
2022/10/27 01:27:23;;;;;;;34.63;21.88;;;12.30;99.90;;;;;;5094200;28;20032;-73
2022/10/27 01:30:03;;;;;;;30.02;21.13;;;12.30;99.90;;;;;;5094988;28;20457;-73
2022/10/27 01:32:51;;;;;;;31.13;20.58;;;12.30;99.90;;;;;;5094461;28;20051;-73
2022/10/27 01:35:40;;;;;;;30.35;20.40;;;12.20;99.90;;;;;;5094105;28;20030;-72
2022/10/27 01:38:27;;;;;;;30.45;20.92;;;12.10;99.90;;;;;;5093926;28;20102;-74
2022/10/27 01:41:07;;;;;;;32.60;20.80;;;12.10;99.90;;;;;;5094755;28;20467;-73
2022/10/27 01:43:34;;;;;;;29.50;20.60;;;12.10;99.90;;;;;;5095492;28;20028;-73
2022/10/27 01:46:03;;;;;;;29.33;20.45;;;12.00;99.90;;;;;;5094692;28;20053;-73
2022/10/27 01:48:32;;;;;;;33.97;21.45;;;12.00;99.90;;;;;;5094872;28;20023;-72
2022/10/27 01:50:58;;;;;;;30.20;19.98;;;12.00;99.90;;;;;;5095376;28;20043;-72
2022/10/27 01:53:24;;;;;;;29.00;20.45;;;12.00;99.90;;;;;;5094064;28;20108;-73
2022/10/27 01:56:04;;;;;;;26.23;18.50;;;12.00;99.90;;;;;;5093317;28;20059;-73
2022/10/27 01:58:36;;;;;;;25.85;18.55;;;11.90;99.90;;;;;;5093782;28;20487;-73
2022/10/27 02:01:19;;;;;;;28.10;19.27;;;11.90;99.90;;;;;;5093658;28;20024;-73
2022/10/27 02:04:20;;;;;;;25.27;18.98;;;11.80;99.90;;;;;;5093908;28;20052;-72
2022/10/27 02:06:51;;;;;;;26.02;18.85;;;11.80;99.90;;;;;;5062035;28;20054;-73
2022/10/27 02:09:44;;;;;;;27.73;18.65;;;11.80;99.90;;;;;;5075048;28;20485;-73
2022/10/27 02:12:44;;;;;;;20.00;15.77;;;11.80;99.90;;;;;;5093141;28;20036;-73
2022/10/27 02:15:29;;;;;;;21.58;16.55;;;11.80;99.90;;;;;;5093279;28;20028;-73
2022/10/27 02:18:01;;;;;;;26.92;16.67;;;11.70;99.90;;;;;;5093166;28;20034;-73
2022/10/27 02:20:33;;;;;;;25.17;17.83;;;11.70;99.90;;;;;;5093757;28;20509;-73
2022/10/27 02:23:03;;;;;;;25.27;18.08;;;11.60;99.90;;;;;;5093560;28;20088;-73
2022/10/27 02:25:38;;;;;;;28.02;18.13;;;11.70;99.90;;;;;;5093750;28;20027;-72
2022/10/27 02:28:07;;;;;;;28.33;18.67;;;11.70;99.90;;;;;;5092705;28;20503;-72
2022/10/27 02:30:33;;;;;;;26.15;18.00;;;11.60;99.90;;;;;;5093180;28;20062;-72
2022/10/27 02:33:00;;;;;;;26.10;19.15;;;11.60;99.90;;;;;;5093363;28;20457;-72
2022/10/27 02:35:26;;;;;;;29.13;18.95;;;11.60;99.90;;;;;;5093413;28;20020;-72
2022/10/27 02:37:51;;;;;;;24.17;17.58;;;11.60;99.90;;;;;;5093142;28;20388;-71
2022/10/27 02:40:17;;;;;;;28.33;18.65;;;11.60;99.90;;;;;;5093018;28;20040;-72
2022/10/27 02:42:43;;;;;;;25.20;18.45;;;11.50;99.90;;;;;;5093214;28;20035;-72
2022/10/27 02:45:09;;;;;;;27.05;18.83;;;11.50;99.90;;;;;;5092785;28;20380;-73
2022/10/27 02:47:34;;;;;;;30.08;19.25;;;11.50;99.90;;;;;;5092995;28;20080;-73
2022/10/27 02:50:00;;;;;;;26.30;18.40;;;11.50;99.90;;;;;;5093050;28;20094;-77
2022/10/27 02:52:25;;;;;;;26.27;18.88;;;11.50;99.90;;;;;;5085488;28;20036;-73
2022/10/27 02:54:51;;;;;;;28.52;19.33;;;11.50;99.90;;;;;;5093325;28;20099;-73
2022/10/27 02:57:18;;;;;;;29.13;19.83;;;11.40;99.90;;;;;;5092518;28;20052;-73
2022/10/27 02:59:44;;;;;;;23.90;17.95;;;11.40;99.90;;;;;;5092890;28;20107;-71
2022/10/27 03:02:09;;;;;;;33.15;20.98;;;11.40;99.90;;;;;;5092159;28;20460;-72
2022/10/27 03:04:35;;;;;;;27.88;19.52;;;11.40;99.90;;;;;;5092846;28;20096;-71
2022/10/27 03:07:01;;;;;;;25.27;18.85;;;11.40;99.90;;;;;;5092122;28;20077;-75
2022/10/27 03:09:27;;;;;;;24.50;17.77;;;11.40;99.90;;;;;;5092405;28;20035;-72
2022/10/27 03:11:53;;;;;;;19.42;14.85;;;11.40;99.90;;;;;;5092513;28;20020;-72
2022/10/27 03:14:18;;;;;;;25.75;16.75;;;11.40;99.90;;;;;;5091897;28;20035;-72
2022/10/27 03:16:44;;;;;;;20.13;15.25;;;11.40;99.90;;;;;;5092476;28;20055;-72
2022/10/27 03:19:09;;;;;;;22.63;16.67;;;11.40;99.90;;;;;;5092378;28;20375;-72
2022/10/27 03:21:35;;;;;;;23.67;17.40;;;11.40;99.90;;;;;;5092621;28;20111;-72
2022/10/27 03:24:01;;;;;;;29.50;17.80;;;11.40;99.90;;;;;;5074423;28;20384;-73
2022/10/27 03:26:26;;;;;;;24.55;14.93;;;11.40;99.90;;;;;;5092921;28;20432;-72
2022/10/27 03:28:52;;;;;;;28.52;14.13;;;11.40;99.90;;;;;;5092264;28;20028;-73
2022/10/27 03:31:18;;;;;;;20.05;13.98;;;11.30;99.90;;;;;;5091929;28;20494;-73
2022/10/27 03:33:43;;;;;;;23.65;14.55;;;11.30;99.90;;;;;;5092529;28;20434;-73
2022/10/27 03:36:10;;;;;;;17.52;13.88;;;11.20;99.90;;;;;;5091639;28;20024;-73
2022/10/27 03:38:36;;;;;;;18.33;14.88;;;11.20;99.90;;;;;;5092406;28;20028;-73
2022/10/27 03:41:02;;;;;;;21.48;14.30;;;11.20;99.90;;;;;;5092043;28;20035;-74
2022/10/27 03:43:28;;;;;;;20.88;14.48;;;11.10;99.90;;;;;;5092136;28;20017;-72
2022/10/27 03:45:53;;;;;;;18.42;14.35;;;11.10;99.90;;;;;;5092378;28;20383;-73
2022/10/27 03:48:19;;;;;;;19.05;13.95;;;11.10;99.90;;;;;;5091909;28;20492;-73
2022/10/27 03:50:47;;;;;;;17.90;14.02;;;11.10;99.90;;;;;;5092313;28;20115;-73
2022/10/27 03:53:14;;;;;;;16.73;13.05;;;11.00;99.90;;;;;;5091610;28;20194;-73
2022/10/27 03:55:39;;;;;;;17.80;13.68;;;11.00;99.90;;;;;;5091961;28;20042;-73
2022/10/27 03:58:05;;;;;;;16.67;13.02;;;11.00;99.90;;;;;;5091659;28;20118;-72
2022/10/27 04:00:32;;;;;;;17.35;13.07;;;11.00;99.90;;;;;;5092294;28;20028;-72
2022/10/27 04:02:58;;;;;;;18.33;13.88;;;11.00;99.90;;;;;;5092187;28;20108;-72
2022/10/27 04:05:24;;;;;;;18.85;14.18;;;10.90;99.90;;;;;;5091826;28;20124;-72
2022/10/27 04:07:50;;;;;;;17.77;14.07;;;11.00;99.90;;;;;;5091896;28;20031;-72
2022/10/27 04:10:15;;;;;;;16.85;13.73;;;10.90;99.90;;;;;;5091391;28;20029;-72
2022/10/27 04:12:53;;;;;;;17.95;13.88;;;11.00;99.90;;;;;;5074085;28;20357;-72
2022/10/27 04:15:20;;;;;;;19.02;14.95;;;11.00;99.90;;;;;;5091464;28;20024;-72
2022/10/27 04:17:46;;;;;;;19.90;15.82;;;11.00;99.90;;;;;;5073809;28;20119;-72
2022/10/27 04:20:12;;;;;;;22.27;16.25;;;11.00;99.90;;;;;;5092035;28;20035;-73
2022/10/27 04:22:38;;;;;;;21.15;15.63;;;11.00;99.90;;;;;;5092295;28;20078;-73
2022/10/27 04:25:04;;;;;;;20.85;15.75;;;11.00;99.90;;;;;;5092427;28;20056;-72
2022/10/27 04:27:30;;;;;;;21.63;15.90;;;11.00;99.90;;;;;;5092259;28;20465;-72
2022/10/27 04:29:55;;;;;;;18.75;14.18;;;11.00;99.90;;;;;;5092027;28;20032;-72
2022/10/27 04:32:21;;;;;;;18.40;14.55;;;11.10;99.90;;;;;;5092020;28;20032;-72
2022/10/27 04:34:47;;;;;;;24.27;14.10;;;11.10;99.90;;;;;;5092213;28;20028;-72
2022/10/27 04:37:12;;;;;;;19.98;14.80;;;11.10;99.90;;;;;;5091834;28;20157;-72
2022/10/27 04:39:38;;;;;;;23.05;15.35;;;11.10;99.90;;;;;;5093360;28;20103;-71
2022/10/27 04:42:04;;;;;;;23.60;16.35;;;11.10;99.90;;;;;;5095506;28;20190;-73
2022/10/27 04:44:29;;;;;;;22.60;16.55;;;11.10;99.90;;;;;;5095444;28;20024;-73
2022/10/27 04:46:55;;;;;;;24.60;16.83;;;11.20;99.90;;;;;;5095789;28;20502;-72
2022/10/27 04:49:21;;;;;;;26.00;16.88;;;11.20;99.90;;;;;;5097396;28;20115;-72
2022/10/27 04:51:46;;;;;;;22.73;17.25;;;11.20;99.90;;;;;;5095286;28;20380;-72
2022/10/27 04:54:12;;;;;;;23.60;18.02;;;11.20;99.90;;;;;;5095018;28;20031;-73
2022/10/27 04:56:37;;;;;;;21.05;16.33;;;11.20;99.90;;;;;;5095376;28;20122;-73
2022/10/27 04:59:03;;;;;;;24.10;16.83;;;11.30;99.90;;;;;;5095451;28;20031;-73
2022/10/27 05:01:29;;;;;;;22.25;15.95;;;11.20;99.90;;;;;;5094759;28;20052;-72
2022/10/27 05:03:54;;;;;;;26.20;15.80;;;11.20;99.90;;;;;;5095367;28;20024;-74
2022/10/27 05:06:20;;;;;;;22.80;15.98;;;11.20;99.90;;;;;;5094779;28;20048;-73
2022/10/27 05:08:45;;;;;;;24.10;16.60;;;11.30;99.90;;;;;;5095290;28;20036;-72
2022/10/27 05:11:11;;;;;;;22.58;16.42;;;11.20;99.90;;;;;;5094787;28;20449;-72
2022/10/27 05:13:37;;;;;;;24.73;15.05;;;11.20;99.90;;;;;;5095593;28;20440;-72
2022/10/27 05:16:03;;;;;;;24.70;15.23;;;11.20;99.90;;;;;;5093734;28;20028;-73
2022/10/27 05:18:29;;;;;;;24.77;16.25;;;11.20;99.90;;;;;;5094609;28;20028;-72
2022/10/27 05:20:55;;;;;;;22.23;15.88;;;11.20;99.90;;;;;;5094934;28;20028;-73
2022/10/27 05:23:21;;;;;;;23.50;16.95;;;11.20;99.90;;;;;;5094900;28;20465;-72
2022/10/27 05:25:54;;;;;;;22.52;15.70;;;11.20;99.90;;;;;;5094884;28;20031;-72
2022/10/27 05:28:21;;;;;;;20.27;15.13;;;11.20;99.90;;;;;;5076324;28;20047;-72
2022/10/27 05:30:46;;;;;;;24.20;16.27;;;11.20;99.90;;;;;;5094942;28;20032;-72
2022/10/27 05:33:12;;;;;;;22.77;15.35;;;11.20;99.90;;;;;;5094713;28;20485;-72
2022/10/27 05:35:38;;;;;;;17.95;14.98;;;11.20;99.90;;;;;;5094402;28;20460;-73
2022/10/27 05:38:04;;;;;;;20.60;15.38;;;11.20;99.90;;;;;;5094489;28;20032;-73
2022/10/27 05:40:35;;;;;;;23.38;14.70;;;11.10;99.90;;;;;;5094224;28;20059;-72
2022/10/27 05:43:02;;;;;;;23.58;16.67;;;11.10;99.90;;;;;;5094656;28;20111;-75
2022/10/27 05:45:28;;;;;;;21.25;15.27;;;11.10;99.90;;;;;;5094091;28;20376;-72
2022/10/27 05:47:58;;;;;;;23.15;15.45;;;11.10;99.90;;;;;;5094031;28;20024;-72
2022/10/27 05:50:25;;;;;;;19.33;14.55;;;11.10;99.90;;;;;;5093400;28;20362;-73
2022/10/27 05:52:50;;;;;;;20.77;13.80;;;11.10;99.90;;;;;;5093963;28;20024;-72
2022/10/27 05:55:16;;;;;;;20.55;14.98;;;11.10;99.90;;;;;;5094065;28;20115;-73
2022/10/27 05:57:42;;;;;;;21.95;14.65;;;11.10;99.90;;;;;;5094384;28;20044;-71
2022/10/27 06:00:08;;;;;;;21.23;14.80;;;11.10;99.90;;;;;;5093809;28;20028;-72
2022/10/27 06:02:33;;;;;;;18.98;14.35;;;11.20;99.90;;;;;;5093855;28;20464;-71
2022/10/27 06:04:59;;;;;;;21.27;14.05;;;11.20;99.90;;;;;;5093974;28;20020;-71
2022/10/27 06:07:25;;;;;;;21.90;13.88;;;11.20;99.90;;;;;;5075396;28;20116;-71
2022/10/27 06:09:50;;;;;;;19.42;13.00;;;11.20;99.90;;;;;;5093653;28;20074;-72
2022/10/27 06:12:16;;;;;;;17.50;12.60;;;11.20;99.90;;;;;;5093528;28;20496;-74
2022/10/27 06:14:42;;;;;;;18.00;12.55;;;11.20;99.90;;;;;;5093963;28;20107;-72
2022/10/27 06:17:07;;;;;;;18.42;12.43;;;11.20;99.90;;;;;;5093984;28;20469;-72
2022/10/27 06:19:33;;;;;;;15.55;12.48;;;11.20;99.90;;;;;;5093449;28;20024;-72
2022/10/27 06:21:58;;;;;;;16.15;11.30;;;11.20;99.90;;;;;;5094072;28;20032;-72
2022/10/27 06:24:24;;;;;;;18.65;11.50;;;11.20;99.90;;;;;;5093384;28;20468;-73
2022/10/27 06:26:50;;;;;;;17.90;11.55;;;11.20;99.90;;;;;;5093368;28;20032;-72
2022/10/27 06:29:15;;;;;;;20.98;13.27;;;11.30;99.90;;;;;;5092940;28;20024;-73
2022/10/27 06:31:41;;;;;;;19.88;12.68;;;11.30;99.90;;;;;;5093694;28;20054;-72
2022/10/27 06:34:07;;;;;;;17.75;13.23;;;11.30;99.90;;;;;;5093555;28;20032;-73
2022/10/27 06:36:33;;;;;;;19.40;12.60;;;11.30;99.90;;;;;;5093280;28;20036;-72
2022/10/27 06:38:58;;;;;;;15.00;11.85;;;11.30;99.90;;;;;;5093819;28;20024;-72
2022/10/27 06:41:24;;;;;;;16.75;12.70;;;11.40;99.90;;;;;;5074804;28;20028;-72
2022/10/27 06:43:50;;;;;;;17.15;12.70;;;11.40;99.90;;;;;;5093485;28;20024;-72
2022/10/27 06:46:15;;;;;;;17.83;12.82;;;11.50;99.90;;;;;;5092616;28;20056;-73
2022/10/27 06:48:41;;;;;;;17.20;11.88;;;11.50;99.90;;;;;;5093508;28;20052;-72
2022/10/27 06:51:06;;;;;;;16.42;12.80;;;11.60;99.90;;;;;;5095775;28;20093;-73
2022/10/27 06:53:32;;;;;;;15.75;11.85;;;11.60;99.90;;;;;;5092597;28;20032;-72
2022/10/27 06:55:58;;;;;;;16.48;12.18;;;11.60;99.90;;;;;;5093052;28;20064;-72
2022/10/27 06:58:24;;;;;;;16.52;13.07;;;11.60;99.90;;;;;;5092718;28;20431;-72
2022/10/27 07:00:49;;;;;;;19.00;13.20;;;11.70;99.90;;;;;;5092965;28;20051;-72
2022/10/27 07:03:15;;;;;;;18.83;12.65;;;11.70;99.90;;;;;;5092346;28;20027;-73
2022/10/27 07:05:41;;;;;;;19.83;13.52;;;11.80;99.90;;;;;;5091920;28;20028;-72
2022/10/27 07:08:06;;;;;;;18.95;13.27;;;11.80;99.90;;;;;;5092674;28;20103;-72
2022/10/27 07:10:32;;;;;;;17.15;13.15;;;11.80;99.90;;;;;;5092628;28;20020;-72
2022/10/27 07:13:00;;;;;;;17.77;12.75;;;12.00;99.90;;;;;;5093191;28;20407;-72
2022/10/27 07:15:30;;;;;;;17.05;12.90;;;12.20;99.90;;;;;;5092456;28;20103;-73
2022/10/27 07:18:06;;;;;;;16.73;11.23;;;12.40;99.90;;;;;;5092817;28;20036;-73
2022/10/27 07:20:33;;;;;;;16.77;11.88;;;12.60;99.90;;;;;;5092503;28;20016;-73
2022/10/27 07:23:00;;;;;;;16.75;11.82;;;12.70;99.90;;;;;;5092908;28;20055;-73
2022/10/27 07:25:27;;;;;;;16.25;11.98;;;12.90;99.90;;;;;;5092484;28;20029;-73
2022/10/27 07:27:53;;;;;;;16.73;12.00;;;13.00;99.90;;;;;;5092755;28;20034;-72
2022/10/27 07:30:25;;;;;;;16.42;11.18;;;13.20;99.90;;;;;;5091969;28;20493;-72
2022/10/27 07:32:51;;;;;;;14.02;10.10;;;13.40;99.90;;;;;;5092262;28;20070;-73
2022/10/27 07:35:16;;;;;;;14.70;11.25;;;13.60;99.90;;;;;;5092447;28;20070;-78
2022/10/27 07:37:46;;;;;;;13.27;10.32;;;13.80;99.90;;;;;;5092495;28;20032;-72
2022/10/27 07:40:14;;;;;;;12.93;10.32;;;14.00;99.90;;;;;;5092342;28;20024;-73
2022/10/27 07:42:47;;;;;;;15.25;11.25;;;14.20;99.90;;;;;;5092321;28;20031;-73
2022/10/27 07:45:15;;;;;;;16.27;11.00;;;14.50;99.90;;;;;;5092645;28;20095;-74
2022/10/27 07:47:44;;;;;;;16.90;11.65;;;14.50;99.90;;;;;;5092221;28;20088;-73
2022/10/27 07:50:11;;;;;;;15.40;11.20;;;14.70;99.90;;;;;;5092488;28;20032;-73
2022/10/27 07:52:41;;;;;;;18.88;12.10;;;14.80;99.90;;;;;;5091752;28;20040;-72
2022/10/27 07:55:08;;;;;;;15.90;11.73;;;15.10;99.90;;;;;;5092683;28;20027;-73
2022/10/27 07:57:33;;;;;;;21.48;11.18;;;15.30;99.90;;;;;;5091692;28;20048;-73
2022/10/27 07:59:59;;;;;;;15.40;11.27;;;15.60;99.90;;;;;;5092438;28;20103;-73
2022/10/27 08:02:25;;;;;;;13.20;10.50;;;15.80;99.90;;;;;;5073785;28;20487;-73
2022/10/27 08:04:50;;;;;;;15.57;10.93;;;15.90;99.90;;;;;;5092379;28;20052;-72
2022/10/27 08:07:16;;;;;;;16.65;10.60;;;16.00;99.90;;;;;;5092432;28;20118;-73
2022/10/27 08:09:42;;;;;;;16.52;10.82;;;16.20;99.90;;;;;;5091610;28;20449;-72
2022/10/27 08:12:08;;;;;;;13.73;9.93;;;16.30;99.90;;;;;;5092222;28;20030;-73
2022/10/27 08:14:34;;;;;;;13.05;9.90;;;16.40;99.90;;;;;;5092788;28;20024;-72
2022/10/27 08:16:59;;;;;;;13.73;9.60;;;16.50;99.90;;;;;;5096161;28;20410;-73
2022/10/27 08:19:25;;;;;;;16.77;10.68;;;16.60;99.90;;;;;;5077557;28;20073;-73
2022/10/27 08:21:51;;;;;;;14.90;10.43;;;16.70;99.90;;;;;;5096191;28;20123;-74
2022/10/27 08:24:16;;;;;;;14.73;10.63;;;16.90;99.90;;;;;;5096296;28;20028;-74
2022/10/27 08:26:42;;;;;;;20.65;11.38;;;17.00;99.90;;;;;;5095679;28;20394;-72
2022/10/27 08:29:07;;;;;;;18.08;12.10;;;17.20;99.90;;;;;;5095938;28;20024;-72
2022/10/27 08:31:33;;;;;;;13.43;10.63;;;17.30;99.90;;;;;;5095521;28;20099;-72
2022/10/27 08:33:59;;;;;;;15.70;10.23;;;17.40;99.90;;;;;;5095911;28;20034;-75
2022/10/27 08:36:24;;;;;;;14.77;10.98;;;17.40;99.90;;;;;;5095227;28;20032;-72
2022/10/27 08:38:50;;;;;;;15.10;11.15;;;17.60;99.90;;;;;;5078060;28;20349;-73
2022/10/27 08:41:38;;;;;;;21.38;14.73;;;17.60;99.90;;;;;;5095747;28;20031;-72
2022/10/27 08:44:16;;;;;;;22.40;14.60;;;17.70;99.90;;;;;;5095785;28;20522;-74
2022/10/27 08:46:53;;;;;;;20.88;15.95;;;17.80;99.90;;;;;;5095218;28;20046;-73
2022/10/27 08:49:31;;;;;;;17.05;13.48;;;17.90;99.90;;;;;;5077348;28;20107;-73
2022/10/27 08:52:36;;;;;;;20.30;11.82;;;18.00;99.90;;;;;;5095384;28;20108;-73
2022/10/27 08:55:20;;;;;;;18.75;12.85;;;18.10;99.90;;;;;;5095374;28;20025;-73
2022/10/27 08:58:04;;;;;;;18.58;12.18;;;18.30;99.90;;;;;;5093080;28;20086;-72
2022/10/27 09:00:43;;;;;;;14.90;11.18;;;18.30;99.90;;;;;;5095012;28;20020;-73
2022/10/27 09:03:17;;;;;;;19.55;11.70;;;18.50;99.90;;;;;;5095544;28;20028;-73
2022/10/27 09:05:55;;;;;;;19.23;11.63;;;18.50;99.90;;;;;;5094696;28;20039;-73
2022/10/27 09:08:35;;;;;;;15.52;10.20;;;18.60;99.00;;;;;;5095114;28;20073;-72
2022/10/27 09:11:07;;;;;;;18.77;11.45;;;18.60;99.90;;;;;;5095159;28;20020;-73
2022/10/27 09:14:08;;;;;;;14.20;10.70;;;18.70;99.70;;;;;;5094484;28;20119;-72
2022/10/27 09:16:40;;;;;;;14.40;10.57;;;18.80;98.90;;;;;;5094523;28;20073;-74
2022/10/27 09:19:12;;;;;;;17.35;11.38;;;18.80;97.40;;;;;;5095068;28;20028;-72
2022/10/27 09:21:41;;;;;;;16.92;11.60;;;18.80;97.60;;;;;;5094463;28;20475;-72
2022/10/27 09:24:12;;;;;;;12.88;9.98;;;18.80;96.90;;;;;;5094704;28;20126;-74
2022/10/27 09:26:39;;;;;;;17.83;10.32;;;18.80;98.40;;;;;;5094014;28;20097;-73
2022/10/27 09:29:35;;;;;;;14.68;11.30;;;18.80;96.80;;;;;;5094474;28;20032;-72
2022/10/27 09:32:11;;;;;;;19.23;12.23;;;18.90;96.80;;;;;;5081151;28;20036;-73
2022/10/27 09:34:44;;;;;;;17.67;12.32;;;19.00;97.60;;;;;;5094026;28;20085;-72
2022/10/27 09:37:15;;;;;;;16.08;11.23;;;19.10;97.90;;;;;;5094599;28;20024;-74
2022/10/27 09:39:52;;;;;;;17.58;12.05;;;19.30;97.00;;;;;;5093962;28;20021;-74
2022/10/27 09:42:19;;;;;;;16.48;11.30;;;19.40;96.70;;;;;;5093803;28;20443;-73
2022/10/27 09:44:57;;;;;;;20.42;11.60;;;19.50;97.80;;;;;;5093923;28;20028;-74
2022/10/27 09:47:25;;;;;;;14.05;11.25;;;19.70;97.90;;;;;;5094075;28;20388;-73
2022/10/27 09:49:54;;;;;;;16.83;11.93;;;19.80;96.70;;;;;;5075922;28;20033;-72
2022/10/27 09:52:30;;;;;;;15.00;11.35;;;19.90;96.70;;;;;;5093713;28;20161;-72
2022/10/27 09:54:57;;;;;;;16.35;10.90;;;19.90;94.40;;;;;;5076267;28;20051;-74
2022/10/27 09:57:27;;;;;;;18.70;11.43;;;20.00;94.00;;;;;;5093888;28;20048;-73
2022/10/27 09:59:56;;;;;;;16.33;9.73;;;20.10;93.90;;;;;;5094123;28;20031;-72
2022/10/27 10:02:48;;;;;;;15.52;9.98;;;20.20;94.10;;;;;;5094021;28;20035;-74
2022/10/27 10:05:21;;;;;;;13.07;8.15;;;20.40;93.80;;;;;;5062451;28;20100;-73
2022/10/27 10:07:46;;;;;;;13.18;9.27;;;20.50;93.30;;;;;;5093476;28;20128;-73
2022/10/27 10:10:18;;;;;;;15.80;9.70;;;20.60;93.60;;;;;;5093456;28;20081;-72
2022/10/27 10:12:44;;;;;;;12.68;8.68;;;20.70;93.30;;;;;;5093565;28;20032;-73
2022/10/27 10:15:09;;;;;;;12.48;8.57;;;20.80;93.00;;;;;;5093636;28;20046;-72
2022/10/27 10:17:36;;;;;;;15.77;9.65;;;20.80;91.90;;;;;;5092844;28;20040;-73
2022/10/27 10:20:04;;;;;;;13.35;9.00;;;20.90;91.60;;;;;;5075204;28;20036;-74
2022/10/27 10:22:32;;;;;;;12.13;8.60;;;20.90;90.30;;;;;;5093327;28;20479;-74
2022/10/27 10:25:21;;;;;;;11.70;9.10;;;20.90;89.10;;;;;;5093368;28;20494;-72
2022/10/27 10:27:59;;;;;;;13.48;8.65;;;20.90;89.60;;;;;;5093180;28;20028;-73
2022/10/27 10:30:26;;;;;;;13.27;9.45;;;20.90;90.20;;;;;;5093629;28;20046;-74
2022/10/27 10:32:56;;;;;;;15.48;8.93;;;20.90;89.90;;;;;;5093208;28;20035;-73
2022/10/27 10:35:43;;;;;;;14.88;9.20;;;21.00;91.50;;;;;;5093134;28;20405;-73
2022/10/27 10:38:28;;;;;;;13.30;9.40;;;21.10;90.60;;;;;;5092515;28;20083;-73
2022/10/27 10:41:15;;;;;;;15.13;9.00;;;21.10;89.80;;;;;;5092905;28;20368;-73
2022/10/27 10:43:42;;;;;;;18.45;9.77;;;21.10;90.40;;;;;;5092850;28;20024;-73
2022/10/27 10:46:22;;;;;;;13.77;8.85;;;21.20;90.00;;;;;;5093128;28;20028;-73
2022/10/27 10:48:56;;;;;;;15.27;9.40;;;21.30;90.60;;;;;;5092785;28;20035;-73
2022/10/27 10:51:31;;;;;;;15.00;9.68;;;21.30;88.20;;;;;;5092719;28;20528;-74
2022/10/27 10:54:02;;;;;;;13.65;9.45;;;21.40;88.80;;;;;;5093037;28;20020;-73
2022/10/27 10:56:30;;;;;;;14.10;8.65;;;21.40;87.10;;;;;;5092783;28;20465;-73
2022/10/27 10:59:18;;;;;;;14.43;9.23;;;21.50;87.10;;;;;;5074564;28;20195;-74
2022/10/27 11:01:53;;;;;;;19.48;9.45;;;21.50;88.60;;;;;;5092544;28;20111;-72
2022/10/27 11:04:24;;;;;;;18.15;9.45;;;21.50;86.50;;;;;;5092899;28;20024;-73
2022/10/27 11:07:27;;;;;;;13.15;9.13;;;21.60;88.30;;;;;;5094715;28;20085;-74
2022/10/27 11:09:58;;;;;;;14.45;8.27;;;21.70;87.80;;;;;;5091929;28;20036;-71
2022/10/27 11:12:24;;;;;;;13.25;7.72;;;21.70;86.50;;;;;;5091395;28;20024;-74
2022/10/27 11:14:51;;;;;;;14.52;8.52;;;21.80;88.10;;;;;;5092484;28;20028;-73
2022/10/27 11:17:18;;;;;;;15.38;7.53;;;21.80;84.60;;;;;;5092601;28;20047;-72
2022/10/27 11:19:44;;;;;;;13.02;7.25;;;21.90;86.70;;;;;;5092012;28;20024;-71
2022/10/27 11:22:16;;;;;;;10.38;7.00;;;21.80;84.50;;;;;;5092693;28;20119;-72
2022/10/27 11:24:47;;;;;;;11.52;7.70;;;21.90;85.40;;;;;;5074179;28;20115;-73
2022/10/27 11:27:32;;;;;;;12.77;8.13;;;21.90;84.00;;;;;;5092503;28;20127;-72
2022/10/27 11:30:03;;;;;;;15.60;8.43;;;21.80;82.10;;;;;;5092369;28;20031;-72
2022/10/27 11:32:59;;;;;;;13.18;7.82;;;21.90;84.30;;;;;;5074705;28;20383;-72
2022/10/27 11:35:47;;;;;;;15.30;8.23;;;21.90;82.30;;;;;;5092888;28;20047;-73
2022/10/27 11:38:22;;;;;;;13.18;6.40;;;21.90;82.50;;;;;;5108045;28;20477;-73
2022/10/27 11:41:03;;;;;;;13.43;8.07;;;22.00;84.20;;;;;;5092222;28;20026;-73
2022/10/27 11:43:44;;;;;;;10.95;6.97;;;22.10;82.50;;;;;;5075778;28;20028;-72
2022/10/27 11:46:28;;;;;;;12.40;7.38;;;22.10;82.00;;;;;;5092560;28;20030;-73
2022/10/27 11:49:01;;;;;;;12.77;6.53;;;22.10;82.10;;;;;;5093864;28;20480;-73
2022/10/27 11:51:56;;;;;;;15.10;6.47;;;22.10;81.50;;;;;;5096376;28;20024;-73
2022/10/27 11:54:22;;;;;;;13.57;6.68;;;22.10;82.10;;;;;;5078943;28;20044;-73
2022/10/27 11:57:13;;;;;;;7.63;5.50;;;22.20;81.90;;;;;;5095576;28;20059;-73
2022/10/27 12:00:05;;;;;;;15.27;6.88;;;22.30;82.30;;;;;;5095877;28;20028;-74
2022/10/27 12:02:51;;;;;;;7.30;5.07;;;22.30;81.80;;;;;;5095954;28;20032;-73
2022/10/27 12:05:26;;;;;;;13.05;6.20;;;22.30;81.00;;;;;;5096331;28;20039;-73
2022/10/27 12:08:10;;;;;;;11.30;5.43;;;22.40;80.60;;;;;;5095827;28;20127;-72
2022/10/27 12:10:46;;;;;;;12.48;6.00;;;22.40;80.70;;;;;;5096378;28;20020;-72
2022/10/27 12:13:17;;;;;;;10.00;5.45;;;22.40;80.60;;;;;;5095885;28;20362;-72
2022/10/27 12:16:36;;;;;;;10.25;5.20;;;22.30;80.60;;;;;;5095506;28;20025;-72
2022/10/27 12:19:23;;;;;;;10.05;4.60;;;22.20;79.80;;;;;;4993855;28;20142;-72
2022/10/27 12:22:15;;;;;;;9.57;5.03;;;22.10;79.80;;;;;;4994031;28;20471;-73
2022/10/27 12:24:46;;;;;;;13.45;5.18;;;22.10;80.90;;;;;;5066334;28;20116;-74
2022/10/27 12:27:20;;;;;;;6.28;4.82;;;22.20;81.00;;;;;;5075456;28;20028;-72
2022/10/27 12:29:49;;;;;;;9.77;5.15;;;22.10;80.50;;;;;;5075203;28;20017;-72
2022/10/27 12:32:26;;;;;;;8.73;4.88;;;22.10;80.10;;;;;;5075491;28;20114;-73
2022/10/27 12:35:14;;;;;;;8.40;5.25;;;21.90;78.90;;;;;;5075220;28;20044;-72
2022/10/27 12:38:06;;;;;;;11.15;5.45;;;21.70;81.00;;;;;;5057019;28;20037;-73
2022/10/27 12:40:32;;;;;;;7.30;4.88;;;21.50;81.00;;;;;;5075377;28;20100;-73
2022/10/27 12:43:03;;;;;;;8.95;4.85;;;21.30;82.00;;;;;;5075262;28;20074;-73
2022/10/27 12:45:48;;;;;;;11.23;5.22;;;21.30;82.40;;;;;;5075507;28;20063;-72
2022/10/27 12:48:38;;;;;;;7.32;5.68;;;21.20;82.70;;;;;;5074964;28;20357;-73
2022/10/27 12:51:06;;;;;;;10.02;5.97;;;21.10;83.20;;;;;;5075049;28;20099;-72